sensor_id;sensor_type;location;lat;lon;timestamp;pressure;altitude;pressure_sealevel;temperature;humidity
83140;BME280;73027;54.208;19.128;2024-03-08T00:02:03;102692.28;;;4.07;60.51
83140;BME280;73027;54.208;19.128;2024-03-08T00:04:28;102675.19;;;4.03;60.51
83140;BME280;73027;54.208;19.128;2024-03-08T00:06:54;102670.72;;;3.94;60.58
83140;BME280;73027;54.208;19.128;2024-03-08T00:09:19;102675.00;;;3.94;60.78
83140;BME280;73027;54.208;19.128;2024-03-08T00:11:46;102670.63;;;3.90;61.27
83140;BME280;73027;54.208;19.128;2024-03-08T00:14:12;102668.75;;;3.82;60.56
83140;BME280;73027;54.208;19.128;2024-03-08T00:16:37;102673.78;;;3.79;60.77
83140;BME280;73027;54.208;19.128;2024-03-08T00:19:03;102671.97;;;3.75;60.41
83140;BME280;73027;54.208;19.128;2024-03-08T00:21:29;102677.00;;;3.72;61.13
83140;BME280;73027;54.208;19.128;2024-03-08T00:23:54;102671.09;;;3.75;60.74
83140;BME280;73027;54.208;19.128;2024-03-08T00:26:20;102661.78;;;3.75;61.11
83140;BME280;73027;54.208;19.128;2024-03-08T00:28:47;102657.47;;;3.73;61.04
83140;BME280;73027;54.208;19.128;2024-03-08T00:31:14;102659.84;;;3.67;60.56
83140;BME280;73027;54.208;19.128;2024-03-08T00:33:39;102652.22;;;3.67;61.19
83140;BME280;73027;54.208;19.128;2024-03-08T00:36:05;102654.69;;;3.62;60.54
83140;BME280;73027;54.208;19.128;2024-03-08T00:38:30;102658.16;;;3.66;61.06
83140;BME280;73027;54.208;19.128;2024-03-08T00:40:56;102648.91;;;3.71;61.59
83140;BME280;73027;54.208;19.128;2024-03-08T00:43:22;102653.94;;;3.68;61.20
83140;BME280;73027;54.208;19.128;2024-03-08T00:45:47;102648.66;;;3.60;60.63
83140;BME280;73027;54.208;19.128;2024-03-08T00:48:13;102647.03;;;3.62;61.49
83140;BME280;73027;54.208;19.128;2024-03-08T00:50:38;102641.88;;;3.61;61.29
83140;BME280;73027;54.208;19.128;2024-03-08T00:53:04;102644.38;;;3.59;61.46
83140;BME280;73027;54.208;19.128;2024-03-08T00:55:30;102645.97;;;3.54;61.39
83140;BME280;73027;54.208;19.128;2024-03-08T00:57:55;102646.69;;;3.49;61.23
83140;BME280;73027;54.208;19.128;2024-03-08T01:00:20;102639.78;;;3.45;61.07
83140;BME280;73027;54.208;19.128;2024-03-08T01:02:46;102637.22;;;3.45;61.10
83140;BME280;73027;54.208;19.128;2024-03-08T01:05:13;102632.13;;;3.45;60.96
83140;BME280;73027;54.208;19.128;2024-03-08T01:07:38;102622.81;;;3.45;61.53
83140;BME280;73027;54.208;19.128;2024-03-08T01:10:04;102609.06;;;3.39;61.55
83140;BME280;73027;54.208;19.128;2024-03-08T01:12:34;102638.22;;;3.50;61.11
83140;BME280;73027;54.208;19.128;2024-03-08T01:15:00;102624.63;;;3.49;60.86
83140;BME280;73027;54.208;19.128;2024-03-08T01:17:25;102625.41;;;3.47;61.53
83140;BME280;73027;54.208;19.128;2024-03-08T01:19:51;102616.84;;;3.43;61.79
83140;BME280;73027;54.208;19.128;2024-03-08T01:22:16;102611.75;;;3.45;61.24
83140;BME280;73027;54.208;19.128;2024-03-08T01:24:42;102619.47;;;3.48;61.81
83140;BME280;73027;54.208;19.128;2024-03-08T01:27:07;102604.03;;;3.42;61.58
83140;BME280;73027;54.208;19.128;2024-03-08T01:29:34;102617.78;;;3.47;61.84
83140;BME280;73027;54.208;19.128;2024-03-08T01:31:59;102615.25;;;3.48;61.75
83140;BME280;73027;54.208;19.128;2024-03-08T01:34:27;102603.25;;;3.44;61.92
83140;BME280;73027;54.208;19.128;2024-03-08T01:36:54;102605.84;;;3.46;61.79
83140;BME280;73027;54.208;19.128;2024-03-08T01:39:21;102606.63;;;3.43;61.18
83140;BME280;73027;54.208;19.128;2024-03-08T01:41:47;102602.19;;;3.36;61.56
83140;BME280;73027;54.208;19.128;2024-03-08T01:44:12;102602.91;;;3.30;61.64
83140;BME280;73027;54.208;19.128;2024-03-08T01:46:44;102599.31;;;3.22;61.46
83140;BME280;73027;54.208;19.128;2024-03-08T01:49:10;102600.94;;;3.19;61.30
83140;BME280;73027;54.208;19.128;2024-03-08T01:51:36;102596.38;;;3.07;60.73
83140;BME280;73027;54.208;19.128;2024-03-08T01:54:03;102584.97;;;2.93;60.95
83140;BME280;73027;54.208;19.128;2024-03-08T01:56:29;102602.75;;;2.92;61.40
83140;BME280;73027;54.208;19.128;2024-03-08T01:58:55;102592.31;;;2.82;61.28
83140;BME280;73027;54.208;19.128;2024-03-08T02:01:20;102593.78;;;2.74;60.77
83140;BME280;73027;54.208;19.128;2024-03-08T02:03:46;102584.91;;;2.60;60.61
83140;BME280;73027;54.208;19.128;2024-03-08T02:06:12;102578.97;;;2.60;60.77
83140;BME280;73027;54.208;19.128;2024-03-08T02:08:39;102568.50;;;2.49;60.86
83140;BME280;73027;54.208;19.128;2024-03-08T02:11:07;102580.47;;;2.53;61.44
83140;BME280;73027;54.208;19.128;2024-03-08T02:13:32;102589.75;;;2.51;60.70
83140;BME280;73027;54.208;19.128;2024-03-08T02:16:00;102583.09;;;2.55;60.97
83140;BME280;73027;54.208;19.128;2024-03-08T02:18:28;102579.69;;;2.56;61.19
83140;BME280;73027;54.208;19.128;2024-03-08T02:20:58;102575.91;;;2.42;60.93
83140;BME280;73027;54.208;19.128;2024-03-08T02:23:24;102583.50;;;2.40;61.35
83140;BME280;73027;54.208;19.128;2024-03-08T02:25:53;102574.97;;;2.38;61.35
83140;BME280;73027;54.208;19.128;2024-03-08T02:28:19;102579.78;;;2.29;60.98
83140;BME280;73027;54.208;19.128;2024-03-08T02:30:46;102578.03;;;2.28;60.91
83140;BME280;73027;54.208;19.128;2024-03-08T02:33:17;102583.91;;;2.25;61.14
83140;BME280;73027;54.208;19.128;2024-03-08T02:35:44;102578.84;;;2.25;61.27
83140;BME280;73027;54.208;19.128;2024-03-08T02:38:17;102579.56;;;2.21;60.32
83140;BME280;73027;54.208;19.128;2024-03-08T02:40:44;102567.31;;;2.08;60.81
83140;BME280;73027;54.208;19.128;2024-03-08T02:43:10;102574.97;;;2.10;60.15
83140;BME280;73027;54.208;19.128;2024-03-08T02:45:36;102568.84;;;2.03;60.71
83140;BME280;73027;54.208;19.128;2024-03-08T02:48:01;102571.34;;;2.02;61.23
83140;BME280;73027;54.208;19.128;2024-03-08T02:50:27;102568.72;;;1.99;61.32
83140;BME280;73027;54.208;19.128;2024-03-08T02:52:52;102562.75;;;1.97;61.10
83140;BME280;73027;54.208;19.128;2024-03-08T02:55:18;102563.47;;;1.92;60.72
83140;BME280;73027;54.208;19.128;2024-03-08T02:57:43;102566.72;;;1.88;60.91
83140;BME280;73027;54.208;19.128;2024-03-08T03:00:09;102555.78;;;1.91;61.08
83140;BME280;73027;54.208;19.128;2024-03-08T03:02:36;102556.78;;;1.96;61.30
83140;BME280;73027;54.208;19.128;2024-03-08T03:05:02;102563.56;;;1.97;61.29
83140;BME280;73027;54.208;19.128;2024-03-08T03:07:31;102558.31;;;1.91;61.14
83140;BME280;73027;54.208;19.128;2024-03-08T03:09:58;102557.50;;;1.92;61.73
83140;BME280;73027;54.208;19.128;2024-03-08T03:12:23;102562.31;;;1.83;60.64
83140;BME280;73027;54.208;19.128;2024-03-08T03:14:49;102563.72;;;1.73;61.37
83140;BME280;73027;54.208;19.128;2024-03-08T03:17:14;102543.97;;;1.65;61.61
83140;BME280;73027;54.208;19.128;2024-03-08T03:19:43;102551.13;;;1.78;61.62
83140;BME280;73027;54.208;19.128;2024-03-08T03:22:08;102552.88;;;1.79;60.98
83140;BME280;73027;54.208;19.128;2024-03-08T03:24:35;102545.81;;;1.70;60.68
83140;BME280;73027;54.208;19.128;2024-03-08T03:27:03;102555.25;;;1.74;60.62
83140;BME280;73027;54.208;19.128;2024-03-08T03:29:42;102551.75;;;1.69;61.49
83140;BME280;73027;54.208;19.128;2024-03-08T03:32:13;102548.25;;;1.66;60.80
83140;BME280;73027;54.208;19.128;2024-03-08T03:34:38;102550.16;;;1.46;60.62
83140;BME280;73027;54.208;19.128;2024-03-08T03:37:04;102552.53;;;1.41;60.57
83140;BME280;73027;54.208;19.128;2024-03-08T03:39:30;102555.97;;;1.43;60.66
83140;BME280;73027;54.208;19.128;2024-03-08T03:42:00;102556.81;;;1.42;60.70
83140;BME280;73027;54.208;19.128;2024-03-08T03:44:27;102546.69;;;1.44;60.16
83140;BME280;73027;54.208;19.128;2024-03-08T03:46:53;102553.09;;;1.58;60.47
83140;BME280;73027;54.208;19.128;2024-03-08T03:49:18;102537.09;;;1.62;60.63
83140;BME280;73027;54.208;19.128;2024-03-08T03:51:44;102547.63;;;1.74;60.54
83140;BME280;73027;54.208;19.128;2024-03-08T03:54:10;102538.09;;;1.66;60.59
83140;BME280;73027;54.208;19.128;2024-03-08T03:56:35;102539.91;;;1.70;60.56
83140;BME280;73027;54.208;19.128;2024-03-08T03:59:00;102535.66;;;1.70;60.14
83140;BME280;73027;54.208;19.128;2024-03-08T04:01:26;102540.84;;;1.73;60.78
83140;BME280;73027;54.208;19.128;2024-03-08T04:03:51;102537.69;;;1.80;60.16
83140;BME280;73027;54.208;19.128;2024-03-08T04:06:17;102526.72;;;1.81;60.99
83140;BME280;73027;54.208;19.128;2024-03-08T04:08:42;102537.94;;;1.89;60.90
83140;BME280;73027;54.208;19.128;2024-03-08T04:11:08;102536.19;;;1.87;60.40
83140;BME280;73027;54.208;19.128;2024-03-08T04:13:36;102537.72;;;1.82;60.93
83140;BME280;73027;54.208;19.128;2024-03-08T04:16:02;102541.25;;;1.87;61.03
83140;BME280;73027;54.208;19.128;2024-03-08T04:18:27;102531.09;;;1.87;60.29
83140;BME280;73027;54.208;19.128;2024-03-08T04:20:53;102524.69;;;1.71;59.96
83140;BME280;73027;54.208;19.128;2024-03-08T04:23:19;102527.91;;;1.66;60.77
83140;BME280;73027;54.208;19.128;2024-03-08T04:25:44;102530.09;;;1.54;60.34
83140;BME280;73027;54.208;19.128;2024-03-08T04:28:10;102525.72;;;1.50;60.69
83140;BME280;73027;54.208;19.128;2024-03-08T04:30:39;102530.25;;;1.33;60.39
83140;BME280;73027;54.208;19.128;2024-03-08T04:33:07;102529.84;;;1.21;60.88
83140;BME280;73027;54.208;19.128;2024-03-08T04:35:33;102527.53;;;1.02;61.34
83140;BME280;73027;54.208;19.128;2024-03-08T04:37:59;102514.94;;;0.79;61.72
83140;BME280;73027;54.208;19.128;2024-03-08T04:40:24;102523.47;;;0.81;62.45
83140;BME280;73027;54.208;19.128;2024-03-08T04:42:50;102533.72;;;0.84;62.99
83140;BME280;73027;54.208;19.128;2024-03-08T04:45:17;102526.84;;;0.82;63.08
83140;BME280;73027;54.208;19.128;2024-03-08T04:47:42;102525.25;;;0.84;62.83
83140;BME280;73027;54.208;19.128;2024-03-08T04:50:08;102523.00;;;0.68;63.05
83140;BME280;73027;54.208;19.128;2024-03-08T04:52:36;102523.97;;;0.47;63.06
83140;BME280;73027;54.208;19.128;2024-03-08T04:55:02;102527.72;;;0.35;64.07
83140;BME280;73027;54.208;19.128;2024-03-08T04:57:30;102530.47;;;0.17;63.73
83140;BME280;73027;54.208;19.128;2024-03-08T04:59:55;102534.41;;;0.09;64.51
83140;BME280;73027;54.208;19.128;2024-03-08T05:02:21;102528.75;;;0.16;65.50
83140;BME280;73027;54.208;19.128;2024-03-08T05:04:48;102517.03;;;0.20;64.93
83140;BME280;73027;54.208;19.128;2024-03-08T05:07:13;102522.78;;;0.14;64.70
83140;BME280;73027;54.208;19.128;2024-03-08T05:09:38;102521.41;;;0.00;64.83
83140;BME280;73027;54.208;19.128;2024-03-08T05:12:05;102527.31;;;0.00;65.26
83140;BME280;73027;54.208;19.128;2024-03-08T05:14:31;102527.56;;;0.07;65.86
83140;BME280;73027;54.208;19.128;2024-03-08T05:16:56;102519.78;;;0.02;65.55
83140;BME280;73027;54.208;19.128;2024-03-08T05:19:22;102521.50;;;0.03;66.56
83140;BME280;73027;54.208;19.128;2024-03-08T05:21:48;102529.34;;;0.09;66.09
83140;BME280;73027;54.208;19.128;2024-03-08T05:24:14;102518.03;;;0.23;66.46
83140;BME280;73027;54.208;19.128;2024-03-08T05:26:40;102530.44;;;0.39;66.41
83140;BME280;73027;54.208;19.128;2024-03-08T05:29:07;102513.72;;;0.44;66.25
83140;BME280;73027;54.208;19.128;2024-03-08T05:31:45;102512.22;;;0.50;65.73
83140;BME280;73027;54.208;19.128;2024-03-08T05:34:12;102527.91;;;0.63;66.36
83140;BME280;73027;54.208;19.128;2024-03-08T05:36:40;102516.72;;;0.58;66.01
83140;BME280;73027;54.208;19.128;2024-03-08T05:39:05;102507.28;;;0.54;65.87
83140;BME280;73027;54.208;19.128;2024-03-08T05:41:32;102522.34;;;0.73;65.91
83140;BME280;73027;54.208;19.128;2024-03-08T05:43:57;102522.66;;;0.82;65.56
83140;BME280;73027;54.208;19.128;2024-03-08T05:46:22;102518.50;;;0.84;65.66
83140;BME280;73027;54.208;19.128;2024-03-08T05:48:48;102514.94;;;0.79;65.33
83140;BME280;73027;54.208;19.128;2024-03-08T05:51:13;102520.22;;;0.85;65.99
83140;BME280;73027;54.208;19.128;2024-03-08T05:53:39;102521.50;;;0.98;65.99
83140;BME280;73027;54.208;19.128;2024-03-08T05:56:04;102515.66;;;1.01;65.25
83140;BME280;73027;54.208;19.128;2024-03-08T05:58:30;102507.69;;;0.90;65.54
83140;BME280;73027;54.208;19.128;2024-03-08T06:00:56;102514.44;;;0.89;65.04
83140;BME280;73027;54.208;19.128;2024-03-08T06:03:22;102520.94;;;1.07;66.10
83140;BME280;73027;54.208;19.128;2024-03-08T06:05:50;102513.44;;;1.36;65.19
83140;BME280;73027;54.208;19.128;2024-03-08T06:08:16;102500.97;;;1.44;65.42
83140;BME280;73027;54.208;19.128;2024-03-08T06:10:41;102537.31;;;1.68;65.38
83140;BME280;73027;54.208;19.128;2024-03-08T06:13:07;102522.59;;;1.85;64.67
83140;BME280;73027;54.208;19.128;2024-03-08T06:15:32;102516.72;;;1.87;64.78
83140;BME280;73027;54.208;19.128;2024-03-08T06:17:58;102523.59;;;2.20;64.26
83140;BME280;73027;54.208;19.128;2024-03-08T06:20:23;102533.28;;;2.33;63.63
83140;BME280;73027;54.208;19.128;2024-03-08T06:22:52;102526.00;;;2.45;62.70
83140;BME280;73027;54.208;19.128;2024-03-08T06:25:17;102534.63;;;2.50;62.65
83140;BME280;73027;54.208;19.128;2024-03-08T06:27:43;102529.75;;;2.59;62.65
83140;BME280;73027;54.208;19.128;2024-03-08T06:30:09;102530.91;;;2.70;62.57
83140;BME280;73027;54.208;19.128;2024-03-08T06:32:38;102524.72;;;2.61;61.70
83140;BME280;73027;54.208;19.128;2024-03-08T06:35:04;102528.53;;;2.45;62.04
83140;BME280;73027;54.208;19.128;2024-03-08T06:37:34;102530.94;;;2.40;62.73
83140;BME280;73027;54.208;19.128;2024-03-08T06:40:00;102530.06;;;2.38;62.67
83140;BME280;73027;54.208;19.128;2024-03-08T06:42:29;102528.25;;;2.34;62.32
83140;BME280;73027;54.208;19.128;2024-03-08T06:45:00;102525.22;;;2.48;63.17
83140;BME280;73027;54.208;19.128;2024-03-08T06:47:30;102527.41;;;2.65;61.98
83140;BME280;73027;54.208;19.128;2024-03-08T06:49:55;102527.28;;;2.61;62.25
83140;BME280;73027;54.208;19.128;2024-03-08T06:52:20;102516.16;;;2.57;62.14
83140;BME280;73027;54.208;19.128;2024-03-08T06:54:47;102523.00;;;2.60;62.85
83140;BME280;73027;54.208;19.128;2024-03-08T06:57:12;102524.34;;;2.78;63.13
83140;BME280;73027;54.208;19.128;2024-03-08T06:59:39;102522.91;;;2.88;62.49
83140;BME280;73027;54.208;19.128;2024-03-08T07:02:04;102526.72;;;3.05;62.43
83140;BME280;73027;54.208;19.128;2024-03-08T07:04:29;102523.41;;;3.08;61.33
83140;BME280;73027;54.208;19.128;2024-03-08T07:06:57;102528.59;;;2.78;61.09
83140;BME280;73027;54.208;19.128;2024-03-08T07:09:23;102526.63;;;3.01;62.78
83140;BME280;73027;54.208;19.128;2024-03-08T07:11:50;102523.09;;;3.30;62.26
83140;BME280;73027;54.208;19.128;2024-03-08T07:14:23;102525.22;;;3.48;62.18
83140;BME280;73027;54.208;19.128;2024-03-08T07:16:49;102522.66;;;3.48;61.69
83140;BME280;73027;54.208;19.128;2024-03-08T07:19:15;102523.00;;;3.61;61.11
83140;BME280;73027;54.208;19.128;2024-03-08T07:21:45;102517.03;;;3.61;61.53
83140;BME280;73027;54.208;19.128;2024-03-08T07:24:11;102523.44;;;3.82;61.95
83140;BME280;73027;54.208;19.128;2024-03-08T07:26:39;102519.78;;;4.09;61.29
83140;BME280;73027;54.208;19.128;2024-03-08T07:29:05;102520.25;;;4.33;61.04
83140;BME280;73027;54.208;19.128;2024-03-08T07:31:30;102512.94;;;4.50;60.69
83140;BME280;73027;54.208;19.128;2024-03-08T07:34:01;102516.84;;;4.31;60.05
83140;BME280;73027;54.208;19.128;2024-03-08T07:36:28;102513.69;;;4.44;60.68
83140;BME280;73027;54.208;19.128;2024-03-08T07:38:53;102516.50;;;4.58;60.90
83140;BME280;73027;54.208;19.128;2024-03-08T07:41:19;102518.59;;;4.80;60.72
83140;BME280;73027;54.208;19.128;2024-03-08T07:43:45;102516.06;;;4.80;60.19
83140;BME280;73027;54.208;19.128;2024-03-08T07:46:10;102524.97;;;5.02;60.20
83140;BME280;73027;54.208;19.128;2024-03-08T07:48:36;102514.09;;;5.13;60.10
83140;BME280;73027;54.208;19.128;2024-03-08T07:51:02;102523.94;;;5.43;60.27
83140;BME280;73027;54.208;19.128;2024-03-08T07:53:28;102518.53;;;5.82;59.45
83140;BME280;73027;54.208;19.128;2024-03-08T07:55:54;102513.16;;;6.27;58.54
83140;BME280;73027;54.208;19.128;2024-03-08T07:58:19;102512.81;;;6.74;58.41
83140;BME280;73027;54.208;19.128;2024-03-08T08:00:44;102514.78;;;7.03;57.12
83140;BME280;73027;54.208;19.128;2024-03-08T08:03:10;102503.56;;;6.86;55.94
83140;BME280;73027;54.208;19.128;2024-03-08T08:05:35;102520.22;;;6.45;56.10
83140;BME280;73027;54.208;19.128;2024-03-08T08:08:03;102520.66;;;6.12;55.75
83140;BME280;73027;54.208;19.128;2024-03-08T08:10:34;102516.34;;;6.08;56.29
83140;BME280;73027;54.208;19.128;2024-03-08T08:12:59;102528.00;;;5.88;57.13
83140;BME280;73027;54.208;19.128;2024-03-08T08:15:25;102528.44;;;5.59;57.96
83140;BME280;73027;54.208;19.128;2024-03-08T08:17:50;102521.34;;;5.42;57.90
83140;BME280;73027;54.208;19.128;2024-03-08T08:20:17;102518.81;;;5.45;58.54
83140;BME280;73027;54.208;19.128;2024-03-08T08:22:43;102517.53;;;5.71;59.30
83140;BME280;73027;54.208;19.128;2024-03-08T08:25:09;102519.59;;;5.96;57.95
83140;BME280;73027;54.208;19.128;2024-03-08T08:27:38;102516.38;;;6.11;58.26
83140;BME280;73027;54.208;19.128;2024-03-08T08:30:10;102515.13;;;6.48;58.50
83140;BME280;73027;54.208;19.128;2024-03-08T08:32:37;102510.31;;;6.81;57.56
83140;BME280;73027;54.208;19.128;2024-03-08T08:35:03;102513.16;;;7.10;56.46
83140;BME280;73027;54.208;19.128;2024-03-08T08:37:30;102505.63;;;7.31;56.42
83140;BME280;73027;54.208;19.128;2024-03-08T08:39:56;102511.69;;;7.42;55.30
83140;BME280;73027;54.208;19.128;2024-03-08T08:42:21;102512.50;;;7.38;55.89
83140;BME280;73027;54.208;19.128;2024-03-08T08:44:47;102501.63;;;7.74;55.25
83140;BME280;73027;54.208;19.128;2024-03-08T08:47:14;102505.25;;;8.12;54.42
83140;BME280;73027;54.208;19.128;2024-03-08T08:49:44;102508.72;;;8.27;53.74
83140;BME280;73027;54.208;19.128;2024-03-08T08:52:11;102503.72;;;8.69;53.33
83140;BME280;73027;54.208;19.128;2024-03-08T08:54:36;102502.03;;;8.85;53.34
83140;BME280;73027;54.208;19.128;2024-03-08T08:57:02;102496.03;;;9.08;52.58
83140;BME280;73027;54.208;19.128;2024-03-08T08:59:33;102494.34;;;9.14;51.91
83140;BME280;73027;54.208;19.128;2024-03-08T09:01:58;102506.31;;;8.80;51.54
83140;BME280;73027;54.208;19.128;2024-03-08T09:04:23;102499.47;;;8.97;52.54
83140;BME280;73027;54.208;19.128;2024-03-08T09:06:49;102502.91;;;8.94;51.52
83140;BME280;73027;54.208;19.128;2024-03-08T09:09:17;102503.75;;;8.78;52.11
83140;BME280;73027;54.208;19.128;2024-03-08T09:11:44;102502.00;;;9.42;52.13
83140;BME280;73027;54.208;19.128;2024-03-08T09:14:09;102489.00;;;10.01;51.19
83140;BME280;73027;54.208;19.128;2024-03-08T09:16:37;102495.69;;;10.39;49.77
83140;BME280;73027;54.208;19.128;2024-03-08T09:19:02;102492.53;;;9.72;48.79
83140;BME280;73027;54.208;19.128;2024-03-08T09:21:28;102488.34;;;9.07;50.59
83140;BME280;73027;54.208;19.128;2024-03-08T09:23:53;102489.09;;;9.67;51.63
83140;BME280;73027;54.208;19.128;2024-03-08T09:26:19;102486.88;;;10.78;50.00
83140;BME280;73027;54.208;19.128;2024-03-08T09:28:44;102486.84;;;10.84;47.54
83140;BME280;73027;54.208;19.128;2024-03-08T09:31:10;102487.19;;;10.29;47.99
83140;BME280;73027;54.208;19.128;2024-03-08T09:33:37;102475.25;;;10.05;48.82
83140;BME280;73027;54.208;19.128;2024-03-08T09:36:02;102483.22;;;11.08;48.19
83140;BME280;73027;54.208;19.128;2024-03-08T09:38:29;102485.13;;;11.74;46.96
83140;BME280;73027;54.208;19.128;2024-03-08T09:40:54;102475.56;;;12.50;45.89
83140;BME280;73027;54.208;19.128;2024-03-08T09:43:22;102470.78;;;12.79;43.32
83140;BME280;73027;54.208;19.128;2024-03-08T09:45:49;102468.44;;;12.65;44.05
83140;BME280;73027;54.208;19.128;2024-03-08T09:48:17;102474.66;;;13.07;43.60
83140;BME280;73027;54.208;19.128;2024-03-08T09:50:44;102469.66;;;12.97;43.22
83140;BME280;73027;54.208;19.128;2024-03-08T09:53:11;102465.72;;;12.73;42.36
83140;BME280;73027;54.208;19.128;2024-03-08T09:55:37;102463.34;;;12.61;42.67
83140;BME280;73027;54.208;19.128;2024-03-08T09:58:06;102465.28;;;13.00;42.29
83140;BME280;73027;54.208;19.128;2024-03-08T10:00:52;102462.25;;;13.73;41.33
83140;BME280;73027;54.208;19.128;2024-03-08T10:03:19;102458.69;;;14.59;40.20
83140;BME280;73027;54.208;19.128;2024-03-08T10:05:44;102456.22;;;15.22;38.70
83140;BME280;73027;54.208;19.128;2024-03-08T10:08:10;102452.44;;;15.66;36.72
83140;BME280;73027;54.208;19.128;2024-03-08T10:10:37;102448.63;;;15.14;35.56
83140;BME280;73027;54.208;19.128;2024-03-08T10:13:06;102448.63;;;15.14;35.79
83140;BME280;73027;54.208;19.128;2024-03-08T10:15:32;102452.97;;;15.14;35.76
83140;BME280;73027;54.208;19.128;2024-03-08T10:18:01;102450.47;;;14.75;36.19
83140;BME280;73027;54.208;19.128;2024-03-08T10:20:32;102456.38;;;14.45;36.84
83140;BME280;73027;54.208;19.128;2024-03-08T10:23:02;102449.28;;;14.13;37.07
83140;BME280;73027;54.208;19.128;2024-03-08T10:25:33;102456.06;;;13.80;37.38
83140;BME280;73027;54.208;19.128;2024-03-08T10:27:59;102447.31;;;13.43;37.68
83140;BME280;73027;54.208;19.128;2024-03-08T10:30:24;102448.47;;;13.25;38.44
83140;BME280;73027;54.208;19.128;2024-03-08T10:32:50;102451.50;;;13.01;38.62
83140;BME280;73027;54.208;19.128;2024-03-08T10:35:17;102446.44;;;12.94;39.31
83140;BME280;73027;54.208;19.128;2024-03-08T10:37:49;102447.16;;;13.92;38.75
83140;BME280;73027;54.208;19.128;2024-03-08T10:40:24;102451.66;;;14.98;37.04
83140;BME280;73027;54.208;19.128;2024-03-08T10:42:53;102445.44;;;15.05;36.07
83140;BME280;73027;54.208;19.128;2024-03-08T10:48:08;102444.50;;;16.01;35.20
83140;BME280;73027;54.208;19.128;2024-03-08T10:50:36;102443.09;;;16.75;32.34
83140;BME280;73027;54.208;19.128;2024-03-08T10:53:05;102442.53;;;16.37;32.14
83140;BME280;73027;54.208;19.128;2024-03-08T10:55:33;102438.81;;;16.98;32.37
83140;BME280;73027;54.208;19.128;2024-03-08T10:57:59;102435.72;;;17.85;31.50
83140;BME280;73027;54.208;19.128;2024-03-08T11:00:25;102429.09;;;18.43;30.62
83140;BME280;73027;54.208;19.128;2024-03-08T11:02:55;102431.66;;;18.66;29.60
83140;BME280;73027;54.208;19.128;2024-03-08T11:05:38;102435.69;;;18.73;29.42
83140;BME280;73027;54.208;19.128;2024-03-08T11:08:20;102433.44;;;18.86;28.79
83140;BME280;73027;54.208;19.128;2024-03-08T11:10:49;102432.13;;;19.16;28.94
83140;BME280;73027;54.208;19.128;2024-03-08T11:13:38;102432.78;;;19.41;28.38
83140;BME280;73027;54.208;19.128;2024-03-08T11:18:53;102422.41;;;18.99;28.20
83140;BME280;73027;54.208;19.128;2024-03-08T11:21:19;102430.44;;;18.09;29.05
83140;BME280;73027;54.208;19.128;2024-03-08T11:24:02;102423.91;;;17.98;29.35
83140;BME280;73027;54.208;19.128;2024-03-08T11:26:29;102415.78;;;17.36;29.48
83140;BME280;73027;54.208;19.128;2024-03-08T11:31:51;102415.97;;;18.01;29.39
83140;BME280;73027;54.208;19.128;2024-03-08T11:34:16;102419.63;;;18.40;28.75
83140;BME280;73027;54.208;19.128;2024-03-08T11:36:42;102414.00;;;18.73;28.28
83140;BME280;73027;54.208;19.128;2024-03-08T11:39:07;102408.03;;;19.10;28.03
83140;BME280;73027;54.208;19.128;2024-03-08T11:41:40;102409.66;;;19.53;27.00
83140;BME280;73027;54.208;19.128;2024-03-08T11:44:06;102398.34;;;19.71;26.74
83140;BME280;73027;54.208;19.128;2024-03-08T11:46:33;102398.09;;;19.77;26.77
83140;BME280;73027;54.208;19.128;2024-03-08T11:48:59;102393.75;;;19.76;26.44
83140;BME280;73027;54.208;19.128;2024-03-08T11:51:26;102393.22;;;19.69;26.13
83140;BME280;73027;54.208;19.128;2024-03-08T11:53:52;102389.66;;;19.70;26.11
83140;BME280;73027;54.208;19.128;2024-03-08T11:56:18;102386.97;;;19.90;25.71
83140;BME280;73027;54.208;19.128;2024-03-08T11:58:56;102392.13;;;19.92;25.27
83140;BME280;73027;54.208;19.128;2024-03-08T12:01:22;102390.78;;;19.83;25.70
83140;BME280;73027;54.208;19.128;2024-03-08T12:03:56;102385.75;;;19.97;25.90
83140;BME280;73027;54.208;19.128;2024-03-08T12:06:25;102386.56;;;20.35;25.21
83140;BME280;73027;54.208;19.128;2024-03-08T12:08:52;102380.72;;;20.82;24.54
83140;BME280;73027;54.208;19.128;2024-03-08T12:11:19;102384.47;;;21.11;24.18
83140;BME280;73027;54.208;19.128;2024-03-08T12:13:48;102377.81;;;20.88;24.44
83140;BME280;73027;54.208;19.128;2024-03-08T12:16:16;102374.56;;;20.83;25.01
83140;BME280;73027;54.208;19.128;2024-03-08T12:18:43;102367.69;;;20.98;24.40
83140;BME280;73027;54.208;19.128;2024-03-08T12:21:11;102370.53;;;20.93;24.66
83140;BME280;73027;54.208;19.128;2024-03-08T12:23:38;102357.69;;;20.71;24.41
83140;BME280;73027;54.208;19.128;2024-03-08T12:26:25;102364.63;;;20.55;24.42
83140;BME280;73027;54.208;19.128;2024-03-08T12:28:52;102356.56;;;20.60;23.52
83140;BME280;73027;54.208;19.128;2024-03-08T12:31:18;102357.41;;;20.60;23.89
83140;BME280;73027;54.208;19.128;2024-03-08T12:33:53;102352.78;;;20.65;23.57
83140;BME280;73027;54.208;19.128;2024-03-08T12:36:19;102356.16;;;20.67;23.62
83140;BME280;73027;54.208;19.128;2024-03-08T12:38:48;102355.25;;;20.68;23.79
83140;BME280;73027;54.208;19.128;2024-03-08T12:41:17;102346.75;;;20.63;23.85
83140;BME280;73027;54.208;19.128;2024-03-08T12:43:44;102352.69;;;20.67;24.30
83140;BME280;73027;54.208;19.128;2024-03-08T12:46:19;102352.69;;;20.67;24.81
83140;BME280;73027;54.208;19.128;2024-03-08T12:48:46;102351.56;;;20.38;25.02
83140;BME280;73027;54.208;19.128;2024-03-08T12:51:16;102351.63;;;20.36;25.71
83140;BME280;73027;54.208;19.128;2024-03-08T12:53:45;102349.53;;;20.43;25.00
83140;BME280;73027;54.208;19.128;2024-03-08T12:56:19;102345.63;;;20.34;25.33